sensor_id;sensor_type;location;lat;lon;timestamp;temperature;humidity
22795;DHT22;11564;50.920;11.612;2023-11-21T04:39:23;4.60;99.90
22795;DHT22;11564;50.920;11.612;2023-11-21T04:41:49;4.40;99.90
22795;DHT22;11564;50.920;11.612;2023-11-21T04:44:15;4.40;99.90
22795;DHT22;11564;50.920;11.612;2023-11-21T04:46:41;4.30;99.90
22795;DHT22;11564;50.920;11.612;2023-11-21T04:49:07;4.20;99.90
22795;DHT22;11564;50.920;11.612;2023-11-21T04:51:32;4.10;99.90
22795;DHT22;11564;50.920;11.612;2023-11-21T04:53:58;4.00;99.90
22795;DHT22;11564;50.920;11.612;2023-11-21T04:56:24;4.00;99.90
22795;DHT22;11564;50.920;11.612;2023-11-21T04:58:50;3.90;99.90
22795;DHT22;11564;50.920;11.612;2023-11-21T05:01:15;3.80;99.90
22795;DHT22;11564;50.920;11.612;2023-11-21T05:03:41;3.80;99.90
22795;DHT22;11564;50.920;11.612;2023-11-21T05:06:09;3.70;99.90
22795;DHT22;11564;50.920;11.612;2023-11-21T05:08:34;3.60;99.90
22795;DHT22;11564;50.920;11.612;2023-11-21T05:11:02;3.50;99.90
22795;DHT22;11564;50.920;11.612;2023-11-21T05:13:28;3.40;99.90
22795;DHT22;11564;50.920;11.612;2023-11-21T05:15:56;3.30;99.90
22795;DHT22;11564;50.920;11.612;2023-11-21T05:18:25;3.30;99.90
22795;DHT22;11564;50.920;11.612;2023-11-21T05:20:55;3.30;99.90
22795;DHT22;11564;50.920;11.612;2023-11-21T05:23:21;3.20;99.90
22795;DHT22;11564;50.920;11.612;2023-11-21T05:25:46;3.10;99.90
22795;DHT22;11564;50.920;11.612;2023-11-21T05:28:12;3.00;99.90
22795;DHT22;11564;50.920;11.612;2023-11-21T05:30:37;3.00;99.90
22795;DHT22;11564;50.920;11.612;2023-11-21T05:33:06;3.00;99.90
22795;DHT22;11564;50.920;11.612;2023-11-21T05:35:31;2.90;99.90
22795;DHT22;11564;50.920;11.612;2023-11-21T05:37:57;2.90;99.90
22795;DHT22;11564;50.920;11.612;2023-11-21T05:40:22;2.90;99.90
22795;DHT22;11564;50.920;11.612;2023-11-21T05:42:48;2.90;99.90
22795;DHT22;11564;50.920;11.612;2023-11-21T05:45:14;2.80;99.90
22795;DHT22;11564;50.920;11.612;2023-11-21T05:47:41;2.80;99.90
22795;DHT22;11564;50.920;11.612;2023-11-21T05:50:07;2.80;99.90
22795;DHT22;11564;50.920;11.612;2023-11-21T05:52:38;2.80;99.90
22795;DHT22;11564;50.920;11.612;2023-11-21T05:55:04;2.80;99.90
22795;DHT22;11564;50.920;11.612;2023-11-21T05:57:36;2.70;99.90
22795;DHT22;11564;50.920;11.612;2023-11-21T06:00:05;2.70;99.90
22795;DHT22;11564;50.920;11.612;2023-11-21T06:02:40;2.60;99.90
22795;DHT22;11564;50.920;11.612;2023-11-21T06:05:06;2.60;99.90
22795;DHT22;11564;50.920;11.612;2023-11-21T06:07:32;2.50;99.90
22795;DHT22;11564;50.920;11.612;2023-11-21T06:09:57;2.50;99.90
22795;DHT22;11564;50.920;11.612;2023-11-21T06:12:23;2.50;99.90
22795;DHT22;11564;50.920;11.612;2023-11-21T06:14:48;2.40;99.90
22795;DHT22;11564;50.920;11.612;2023-11-21T06:17:14;2.40;99.90
22795;DHT22;11564;50.920;11.612;2023-11-21T06:19:39;2.40;99.90
22795;DHT22;11564;50.920;11.612;2023-11-21T06:22:05;2.40;99.90
22795;DHT22;11564;50.920;11.612;2023-11-21T06:24:31;2.30;99.90
22795;DHT22;11564;50.920;11.612;2023-11-21T06:26:57;2.30;99.90
22795;DHT22;11564;50.920;11.612;2023-11-21T06:29:22;2.30;99.90
22795;DHT22;11564;50.920;11.612;2023-11-21T06:31:48;2.30;99.90
22795;DHT22;11564;50.920;11.612;2023-11-21T06:34:13;2.30;99.90
22795;DHT22;11564;50.920;11.612;2023-11-21T06:36:39;2.30;99.90
22795;DHT22;11564;50.920;11.612;2023-11-21T06:39:04;2.30;99.90
22795;DHT22;11564;50.920;11.612;2023-11-21T06:41:34;2.40;99.90
22795;DHT22;11564;50.920;11.612;2023-11-21T06:43:59;2.40;99.90
22795;DHT22;11564;50.920;11.612;2023-11-21T06:46:25;2.50;99.90
22795;DHT22;11564;50.920;11.612;2023-11-21T06:48:51;2.60;99.90
22795;DHT22;11564;50.920;11.612;2023-11-21T06:51:16;2.70;99.90
22795;DHT22;11564;50.920;11.612;2023-11-21T06:53:42;2.80;99.90
22795;DHT22;11564;50.920;11.612;2023-11-21T06:56:17;3.00;99.90
22795;DHT22;11564;50.920;11.612;2023-11-21T06:58:43;3.10;99.90
22795;DHT22;11564;50.920;11.612;2023-11-21T07:01:11;3.30;99.90
22795;DHT22;11564;50.920;11.612;2023-11-21T07:03:36;3.40;99.90
22795;DHT22;11564;50.920;11.612;2023-11-21T07:06:03;3.60;99.90
22795;DHT22;11564;50.920;11.612;2023-11-21T07:08:28;3.80;99.90
22795;DHT22;11564;50.920;11.612;2023-11-21T07:10:54;3.90;99.90
22795;DHT22;11564;50.920;11.612;2023-11-21T07:13:19;4.00;99.90
22795;DHT22;11564;50.920;11.612;2023-11-21T07:15:45;4.20;99.90
22795;DHT22;11564;50.920;11.612;2023-11-21T07:18:10;4.30;99.90
22795;DHT22;11564;50.920;11.612;2023-11-21T07:20:36;4.40;99.90
22795;DHT22;11564;50.920;11.612;2023-11-21T07:23:02;4.50;99.90
22795;DHT22;11564;50.920;11.612;2023-11-21T07:25:29;4.60;99.90
22795;DHT22;11564;50.920;11.612;2023-11-21T07:27:54;4.80;99.90
22795;DHT22;11564;50.920;11.612;2023-11-21T07:30:20;4.90;99.90
22795;DHT22;11564;50.920;11.612;2023-11-21T07:32:48;5.00;99.90
22795;DHT22;11564;50.920;11.612;2023-11-21T07:35:13;5.20;99.90
22795;DHT22;11564;50.920;11.612;2023-11-21T07:37:39;5.30;99.90
22795;DHT22;11564;50.920;11.612;2023-11-21T07:40:05;5.30;99.90
22795;DHT22;11564;50.920;11.612;2023-11-21T07:42:31;5.40;99.90
22795;DHT22;11564;50.920;11.612;2023-11-21T07:44:56;5.60;99.90
22795;DHT22;11564;50.920;11.612;2023-11-21T07:47:22;5.70;99.90
22795;DHT22;11564;50.920;11.612;2023-11-21T07:49:47;5.90;99.90
22795;DHT22;11564;50.920;11.612;2023-11-21T07:52:13;5.90;99.90
22795;DHT22;11564;50.920;11.612;2023-11-21T07:54:41;6.00;99.90
22795;DHT22;11564;50.920;11.612;2023-11-21T07:57:07;6.10;99.90
22795;DHT22;11564;50.920;11.612;2023-11-21T07:59:33;6.20;99.90
22795;DHT22;11564;50.920;11.612;2023-11-21T08:01:58;6.30;99.90
22795;DHT22;11564;50.920;11.612;2023-11-21T08:04:24;6.30;99.90
22795;DHT22;11564;50.920;11.612;2023-11-21T08:06:49;6.40;99.90
22795;DHT22;11564;50.920;11.612;2023-11-21T08:09:16;6.50;99.90
22795;DHT22;11564;50.920;11.612;2023-11-21T08:11:42;6.60;99.90
22795;DHT22;11564;50.920;11.612;2023-11-21T08:14:08;6.60;99.90
22795;DHT22;11564;50.920;11.612;2023-11-21T08:16:34;6.50;99.90
22795;DHT22;11564;50.920;11.612;2023-11-21T08:18:59;6.60;99.90
22795;DHT22;11564;50.920;11.612;2023-11-21T08:21:25;6.60;99.90
22795;DHT22;11564;50.920;11.612;2023-11-21T08:23:52;6.70;99.90
22795;DHT22;11564;50.920;11.612;2023-11-21T08:26:19;6.70;99.90
22795;DHT22;11564;50.920;11.612;2023-11-21T08:28:45;6.80;99.90
22795;DHT22;11564;50.920;11.612;2023-11-21T08:31:10;6.90;99.90
22795;DHT22;11564;50.920;11.612;2023-11-21T08:33:36;7.00;99.90
22795;DHT22;11564;50.920;11.612;2023-11-21T08:36:06;7.00;99.90
22795;DHT22;11564;50.920;11.612;2023-11-21T08:38:31;7.00;99.90
22795;DHT22;11564;50.920;11.612;2023-11-21T08:40:57;7.10;99.90
22795;DHT22;11564;50.920;11.612;2023-11-21T08:43:23;7.10;99.90
22795;DHT22;11564;50.920;11.612;2023-11-21T08:45:50;7.10;99.90
22795;DHT22;11564;50.920;11.612;2023-11-21T08:48:15;7.10;99.90
22795;DHT22;11564;50.920;11.612;2023-11-21T08:50:41;6.90;99.90
22795;DHT22;11564;50.920;11.612;2023-11-21T08:53:06;6.70;99.90
22795;DHT22;11564;50.920;11.612;2023-11-21T08:55:32;6.80;99.90
22795;DHT22;11564;50.920;11.612;2023-11-21T08:58:02;6.80;99.90
22795;DHT22;11564;50.920;11.612;2023-11-21T09:00:30;6.70;99.90
22795;DHT22;11564;50.920;11.612;2023-11-21T09:02:56;6.80;99.90
22795;DHT22;11564;50.920;11.612;2023-11-21T09:05:22;6.80;99.90
22795;DHT22;11564;50.920;11.612;2023-11-21T09:07:48;6.80;99.90
22795;DHT22;11564;50.920;11.612;2023-11-21T09:10:14;6.80;99.90
22795;DHT22;11564;50.920;11.612;2023-11-21T09:12:40;6.80;99.90
22795;DHT22;11564;50.920;11.612;2023-11-21T09:15:06;6.90;99.90
22795;DHT22;11564;50.920;11.612;2023-11-21T09:17:32;7.00;99.90
22795;DHT22;11564;50.920;11.612;2023-11-21T09:19:57;6.90;99.90
22795;DHT22;11564;50.920;11.612;2023-11-21T09:22:23;7.00;99.90
22795;DHT22;11564;50.920;11.612;2023-11-21T09:24:50;7.00;99.90
22795;DHT22;11564;50.920;11.612;2023-11-21T09:27:16;6.80;99.90
22795;DHT22;11564;50.920;11.612;2023-11-21T09:29:42;6.80;99.90
22795;DHT22;11564;50.920;11.612;2023-11-21T09:32:08;6.80;99.90
22795;DHT22;11564;50.920;11.612;2023-11-21T09:34:37;6.70;99.90
22795;DHT22;11564;50.920;11.612;2023-11-21T09:37:04;6.80;99.90
22795;DHT22;11564;50.920;11.612;2023-11-21T09:39:31;6.90;99.90
22795;DHT22;11564;50.920;11.612;2023-11-21T09:41:57;6.90;99.90
22795;DHT22;11564;50.920;11.612;2023-11-21T09:44:35;6.90;99.90
22795;DHT22;11564;50.920;11.612;2023-11-21T09:47:02;7.10;99.90
22795;DHT22;11564;50.920;11.612;2023-11-21T09:49:28;7.00;99.90
22795;DHT22;11564;50.920;11.612;2023-11-21T09:51:55;7.20;99.90
22795;DHT22;11564;50.920;11.612;2023-11-21T09:54:21;7.10;99.90
22795;DHT22;11564;50.920;11.612;2023-11-21T09:56:47;7.00;99.90
22795;DHT22;11564;50.920;11.612;2023-11-21T09:59:13;6.90;99.90
22795;DHT22;11564;50.920;11.612;2023-11-21T10:01:41;6.90;99.90
22795;DHT22;11564;50.920;11.612;2023-11-21T10:04:07;7.10;99.90
22795;DHT22;11564;50.920;11.612;2023-11-21T10:06:40;7.10;99.90
22795;DHT22;11564;50.920;11.612;2023-11-21T10:09:11;7.10;99.90
22795;DHT22;11564;50.920;11.612;2023-11-21T10:11:40;7.30;99.90
22795;DHT22;11564;50.920;11.612;2023-11-21T10:14:08;7.40;99.90
22795;DHT22;11564;50.920;11.612;2023-11-21T10:16:35;7.40;99.90
22795;DHT22;11564;50.920;11.612;2023-11-21T10:19:02;7.40;99.90
22795;DHT22;11564;50.920;11.612;2023-11-21T10:21:29;7.40;99.90
22795;DHT22;11564;50.920;11.612;2023-11-21T10:23:55;7.40;99.90
22795;DHT22;11564;50.920;11.612;2023-11-21T10:26:20;7.30;99.90
22795;DHT22;11564;50.920;11.612;2023-11-21T10:28:55;7.40;99.90
22795;DHT22;11564;50.920;11.612;2023-11-21T10:31:22;7.20;99.90
22795;DHT22;11564;50.920;11.612;2023-11-21T10:33:49;7.30;99.90
22795;DHT22;11564;50.920;11.612;2023-11-21T10:36:24;7.50;99.90
22795;DHT22;11564;50.920;11.612;2023-11-21T10:38:50;7.40;99.90
22795;DHT22;11564;50.920;11.612;2023-11-21T10:41:18;7.30;99.90
22795;DHT22;11564;50.920;11.612;2023-11-21T10:43:44;7.30;99.90
22795;DHT22;11564;50.920;11.612;2023-11-21T10:46:09;7.30;99.90
22795;DHT22;11564;50.920;11.612;2023-11-21T10:48:35;7.10;99.90
22795;DHT22;11564;50.920;11.612;2023-11-21T10:51:01;7.00;99.90
22795;DHT22;11564;50.920;11.612;2023-11-21T10:53:32;7.00;99.90
22795;DHT22;11564;50.920;11.612;2023-11-21T10:56:08;7.10;99.90
22795;DHT22;11564;50.920;11.612;2023-11-21T10:58:35;7.10;99.90
22795;DHT22;11564;50.920;11.612;2023-11-21T11:01:01;7.10;99.90
22795;DHT22;11564;50.920;11.612;2023-11-21T11:03:29;7.00;99.90
22795;DHT22;11564;50.920;11.612;2023-11-21T11:05:55;7.00;99.90
22795;DHT22;11564;50.920;11.612;2023-11-21T11:08:21;7.00;99.90
22795;DHT22;11564;50.920;11.612;2023-11-21T11:10:51;7.10;99.90
22795;DHT22;11564;50.920;11.612;2023-11-21T11:13:18;7.30;99.90
22795;DHT22;11564;50.920;11.612;2023-11-21T11:15:46;7.40;99.90
22795;DHT22;11564;50.920;11.612;2023-11-21T11:18:12;7.20;99.90
22795;DHT22;11564;50.920;11.612;2023-11-21T11:20:39;7.20;99.90
22795;DHT22;11564;50.920;11.612;2023-11-21T11:23:22;7.30;99.90
22795;DHT22;11564;50.920;11.612;2023-11-21T11:28:56;7.10;99.90
22795;DHT22;11564;50.920;11.612;2023-11-21T11:34:04;7.10;99.90
22795;DHT22;11564;50.920;11.612;2023-11-21T11:36:36;7.10;99.90
22795;DHT22;11564;50.920;11.612;2023-11-21T11:39:03;7.20;99.90
22795;DHT22;11564;50.920;11.612;2023-11-21T11:41:31;7.20;99.90
22795;DHT22;11564;50.920;11.612;2023-11-21T11:44:00;7.30;99.90
22795;DHT22;11564;50.920;11.612;2023-11-21T11:46:41;7.30;99.90
22795;DHT22;11564;50.920;11.612;2023-11-21T11:49:07;7.20;99.90
22795;DHT22;11564;50.920;11.612;2023-11-21T11:51:33;7.00;99.90
22795;DHT22;11564;50.920;11.612;2023-11-21T11:54:01;7.00;99.90
22795;DHT22;11564;50.920;11.612;2023-11-21T11:56:27;7.10;99.90
22795;DHT22;11564;50.920;11.612;2023-11-21T11:58:54;7.00;99.90
22795;DHT22;11564;50.920;11.612;2023-11-21T12:01:20;6.90;99.90
22795;DHT22;11564;50.920;11.612;2023-11-21T12:06:34;6.80;99.90
22795;DHT22;11564;50.920;11.612;2023-11-21T12:09:01;6.70;99.90
22795;DHT22;11564;50.920;11.612;2023-11-21T12:11:32;6.70;99.90
22795;DHT22;11564;50.920;11.612;2023-11-21T12:13:58;6.60;99.90
22795;DHT22;11564;50.920;11.612;2023-11-21T12:16:25;6.50;99.90
22795;DHT22;11564;50.920;11.612;2023-11-21T12:18:53;6.50;99.90
22795;DHT22;11564;50.920;11.612;2023-11-21T12:21:19;6.60;99.90
22795;DHT22;11564;50.920;11.612;2023-11-21T12:23:45;6.50;99.90
22795;DHT22;11564;50.920;11.612;2023-11-21T12:26:13;6.50;99.90
22795;DHT22;11564;50.920;11.612;2023-11-21T12:28:39;6.50;99.90
22795;DHT22;11564;50.920;11.612;2023-11-21T12:31:04;6.50;99.90
22795;DHT22;11564;50.920;11.612;2023-11-21T12:33:32;6.50;99.90
22795;DHT22;11564;50.920;11.612;2023-11-21T12:35:58;6.40;99.90
22795;DHT22;11564;50.920;11.612;2023-11-21T12:38:24;6.20;99.90
22795;DHT22;11564;50.920;11.612;2023-11-21T12:40:50;6.10;99.90
22795;DHT22;11564;50.920;11.612;2023-11-21T12:43:16;6.10;99.90
22795;DHT22;11564;50.920;11.612;2023-11-21T12:45:43;6.00;99.90
22795;DHT22;11564;50.920;11.612;2023-11-21T12:48:09;6.10;99.90
22795;DHT22;11564;50.920;11.612;2023-11-21T12:50:36;6.10;99.90
22795;DHT22;11564;50.920;11.612;2023-11-21T12:53:06;6.10;99.90
22795;DHT22;11564;50.920;11.612;2023-11-21T12:55:34;6.20;99.90
22795;DHT22;11564;50.920;11.612;2023-11-21T12:58:03;6.20;99.90
22795;DHT22;11564;50.920;11.612;2023-11-21T13:00:39;6.30;99.90
22795;DHT22;11564;50.920;11.612;2023-11-21T13:03:07;6.10;99.90
22795;DHT22;11564;50.920;11.612;2023-11-21T13:05:35;6.10;99.90
22795;DHT22;11564;50.920;11.612;2023-11-21T13:08:04;6.20;99.90
22795;DHT22;11564;50.920;11.612;2023-11-21T13:10:33;6.30;99.90
22795;DHT22;11564;50.920;11.612;2023-11-21T13:13:01;6.30;99.90
22795;DHT22;11564;50.920;11.612;2023-11-21T13:15:30;6.10;99.90
22795;DHT22;11564;50.920;11.612;2023-11-21T13:18:00;5.90;99.90
22795;DHT22;11564;50.920;11.612;2023-11-21T13:20:26;5.90;99.90
22795;DHT22;11564;50.920;11.612;2023-11-21T13:22:52;5.80;99.90
22795;DHT22;11564;50.920;11.612;2023-11-21T13:25:26;5.80;99.90
22795;DHT22;11564;50.920;11.612;2023-11-21T13:27:53;5.90;99.90
22795;DHT22;11564;50.920;11.612;2023-11-21T13:30:19;5.90;99.90
22795;DHT22;11564;50.920;11.612;2023-11-21T13:32:51;6.00;99.90
22795;DHT22;11564;50.920;11.612;2023-11-21T13:35:17;5.80;99.90
22795;DHT22;11564;50.920;11.612;2023-11-21T13:38:06;5.80;99.90
22795;DHT22;11564;50.920;11.612;2023-11-21T13:40:32;5.60;99.90
22795;DHT22;11564;50.920;11.612;2023-11-21T13:43:00;5.40;99.90
22795;DHT22;11564;50.920;11.612;2023-11-21T13:45:29;5.50;99.90
22795;DHT22;11564;50.920;11.612;2023-11-21T13:47:56;5.60;99.90
22795;DHT22;11564;50.920;11.612;2023-11-21T13:50:25;5.70;99.90
22795;DHT22;11564;50.920;11.612;2023-11-21T13:52:55;5.70;99.90
22795;DHT22;11564;50.920;11.612;2023-11-21T13:55:21;5.70;99.90
22795;DHT22;11564;50.920;11.612;2023-11-21T13:57:50;5.70;99.90
22795;DHT22;11564;50.920;11.612;2023-11-21T14:00:18;5.80;99.90
22795;DHT22;11564;50.920;11.612;2023-11-21T14:03:22;5.70;99.90
22795;DHT22;11564;50.920;11.612;2023-11-21T14:05:48;5.70;99.90
22795;DHT22;11564;50.920;11.612;2023-11-21T14:08:20;5.80;99.90
22795;DHT22;11564;50.920;11.612;2023-11-21T14:10:47;5.80;99.90
22795;DHT22;11564;50.920;11.612;2023-11-21T14:13:17;5.70;99.90
22795;DHT22;11564;50.920;11.612;2023-11-21T14:15:42;5.70;99.90
22795;DHT22;11564;50.920;11.612;2023-11-21T14:18:11;5.70;99.90
22795;DHT22;11564;50.920;11.612;2023-11-21T14:20:42;5.70;99.90
22795;DHT22;11564;50.920;11.612;2023-11-21T14:23:09;5.70;99.90
22795;DHT22;11564;50.920;11.612;2023-11-21T14:25:35;5.40;99.90
22795;DHT22;11564;50.920;11.612;2023-11-21T14:28:05;5.50;99.90
22795;DHT22;11564;50.920;11.612;2023-11-21T14:30:32;5.50;99.90
22795;DHT22;11564;50.920;11.612;2023-11-21T14:32:58;5.50;99.90
22795;DHT22;11564;50.920;11.612;2023-11-21T14:35:24;5.50;99.90
22795;DHT22;11564;50.920;11.612;2023-11-21T14:37:50;5.40;99.90
22795;DHT22;11564;50.920;11.612;2023-11-21T14:40:15;5.30;99.90
22795;DHT22;11564;50.920;11.612;2023-11-21T14:42:42;5.30;99.90
22795;DHT22;11564;50.920;11.612;2023-11-21T14:45:07;5.30;99.90
22795;DHT22;11564;50.920;11.612;2023-11-21T14:47:33;5.10;99.90
22795;DHT22;11564;50.920;11.612;2023-11-21T14:50:02;5.20;99.90
22795;DHT22;11564;50.920;11.612;2023-11-21T14:52:48;5.20;99.90
22795;DHT22;11564;50.920;11.612;2023-11-21T14:55:24;4.90;99.90
22795;DHT22;11564;50.920;11.612;2023-11-21T14:57:55;4.90;99.90
22795;DHT22;11564;50.920;11.612;2023-11-21T15:00:21;5.00;99.90
22795;DHT22;11564;50.920;11.612;2023-11-21T15:03:08;4.90;99.90
22795;DHT22;11564;50.920;11.612;2023-11-21T15:05:35;4.60;99.90
22795;DHT22;11564;50.920;11.612;2023-11-21T15:08:01;4.50;99.90
22795;DHT22;11564;50.920;11.612;2023-11-21T15:10:59;4.50;99.90
22795;DHT22;11564;50.920;11.612;2023-11-21T15:13:24;4.30;99.90
22795;DHT22;11564;50.920;11.612;2023-11-21T15:15:52;4.30;99.90
22795;DHT22;11564;50.920;11.612;2023-11-21T15:18:20;4.30;99.90
22795;DHT22;11564;50.920;11.612;2023-11-21T15:20:45;4.30;99.90
22795;DHT22;11564;50.920;11.612;2023-11-21T15:23:11;4.30;99.90
22795;DHT22;11564;50.920;11.612;2023-11-21T15:25:38;4.20;99.90
22795;DHT22;11564;50.920;11.612;2023-11-21T15:28:03;4.30;99.90
22795;DHT22;11564;50.920;11.612;2023-11-21T15:30:30;4.40;99.90
22795;DHT22;11564;50.920;11.612;2023-11-21T15:33:00;4.50;99.90
22795;DHT22;11564;50.920;11.612;2023-11-21T15:35:26;4.50;99.90
22795;DHT22;11564;50.920;11.612;2023-11-21T15:37:53;4.40;99.90
22795;DHT22;11564;50.920;11.612;2023-11-21T15:40:19;4.50;99.90
22795;DHT22;11564;50.920;11.612;2023-11-21T15:42:45;4.50;99.90
22795;DHT22;11564;50.920;11.612;2023-11-21T15:45:11;4.50;99.90
22795;DHT22;11564;50.920;11.612;2023-11-21T15:47:36;4.40;99.90
22795;DHT22;11564;50.920;11.612;2023-11-21T15:50:03;4.40;99.90
22795;DHT22;11564;50.920;11.612;2023-11-21T15:52:32;4.40;99.90
22795;DHT22;11564;50.920;11.612;2023-11-21T15:54:57;4.40;99.90
22795;DHT22;11564;50.920;11.612;2023-11-21T15:57:23;4.40;99.90
22795;DHT22;11564;50.920;11.612;2023-11-21T15:59:50;4.30;99.90
22795;DHT22;11564;50.920;11.612;2023-11-21T16:02:15;4.30;99.90
22795;DHT22;11564;50.920;11.612;2023-11-21T16:04:41;4.40;99.90
22795;DHT22;11564;50.920;11.612;2023-11-21T16:07:08;4.50;99.90
22795;DHT22;11564;50.920;11.612;2023-11-21T16:09:35;4.50;99.90
22795;DHT22;11564;50.920;11.612;2023-11-21T16:12:03;4.50;99.90
22795;DHT22;11564;50.920;11.612;2023-11-21T16:14:31;4.50;99.90
22795;DHT22;11564;50.920;11.612;2023-11-21T16:17:14;4.50;99.90
22795;DHT22;11564;50.920;11.612;2023-11-21T16:19:42;4.30;99.90
22795;DHT22;11564;50.920;11.612;2023-11-21T16:22:08;4.30;99.90
22795;DHT22;11564;50.920;11.612;2023-11-21T16:24:34;4.30;99.90
22795;DHT22;11564;50.920;11.612;2023-11-21T16:26:59;4.20;99.90
22795;DHT22;11564;50.920;11.612;2023-11-21T16:29:25;4.20;99.90
22795;DHT22;11564;50.920;11.612;2023-11-21T16:31:51;4.20;99.90
22795;DHT22;11564;50.920;11.612;2023-11-21T16:34:20;4.20;99.90
22795;DHT22;11564;50.920;11.612;2023-11-21T16:36:47;4.10;99.90
22795;DHT22;11564;50.920;11.612;2023-11-21T16:39:14;4.00;99.90
22795;DHT22;11564;50.920;11.612;2023-11-21T16:41:42;4.00;99.90
22795;DHT22;11564;50.920;11.612;2023-11-21T16:44:17;4.00;99.90
22795;DHT22;11564;50.920;11.612;2023-11-21T16:46:50;4.00;99.90
22795;DHT22;11564;50.920;11.612;2023-11-21T16:49:18;4.00;99.90
22795;DHT22;11564;50.920;11.612;2023-11-21T16:51:48;4.10;99.90
22795;DHT22;11564;50.920;11.612;2023-11-21T16:54:14;4.10;99.90
22795;DHT22;11564;50.920;11.612;2023-11-21T16:56:44;4.10;99.90
22795;DHT22;11564;50.920;11.612;2023-11-21T16:59:10;4.10;99.90
22795;DHT22;11564;50.920;11.612;2023-11-21T17:01:36;4.20;99.90
22795;DHT22;11564;50.920;11.612;2023-11-21T17:04:01;4.20;99.90
22795;DHT22;11564;50.920;11.612;2023-11-21T17:06:27;4.30;99.90
22795;DHT22;11564;50.920;11.612;2023-11-21T17:08:54;4.10;99.90
22795;DHT22;11564;50.920;11.612;2023-11-21T17:11:26;4.10;99.90
22795;DHT22;11564;50.920;11.612;2023-11-21T17:13:52;4.10;99.90
22795;DHT22;11564;50.920;11.612;2023-11-21T17:16:18;4.00;99.90
22795;DHT22;11564;50.920;11.612;2023-11-21T17:18:43;4.00;99.90
22795;DHT22;11564;50.920;11.612;2023-11-21T17:21:09;4.00;99.90
22795;DHT22;11564;50.920;11.612;2023-11-21T17:23:36;4.10;99.90
22795;DHT22;11564;50.920;11.612;2023-11-21T17:26:02;4.20;99.90
22795;DHT22;11564;50.920;11.612;2023-11-21T17:28:27;4.00;99.90
22795;DHT22;11564;50.920;11.612;2023-11-21T17:30:53;3.90;99.90
22795;DHT22;11564;50.920;11.612;2023-11-21T17:33:19;3.70;99.90
22795;DHT22;11564;50.920;11.612;2023-11-21T17:35:45;3.70;99.90
22795;DHT22;11564;50.920;11.612;2023-11-21T17:38:11;3.60;99.90
22795;DHT22;11564;50.920;11.612;2023-11-21T17:40:40;3.60;99.90
22795;DHT22;11564;50.920;11.612;2023-11-21T17:43:05;3.60;99.90
22795;DHT22;11564;50.920;11.612;2023-11-21T17:45:32;3.60;99.90
22795;DHT22;11564;50.920;11.612;2023-11-21T17:47:57;3.50;99.90
22795;DHT22;11564;50.920;11.612;2023-11-21T17:50:23;3.50;99.90
22795;DHT22;11564;50.920;11.612;2023-11-21T17:52:49;3.60;99.90
22795;DHT22;11564;50.920;11.612;2023-11-21T17:55:14;3.70;99.90
22795;DHT22;11564;50.920;11.612;2023-11-21T17:57:40;3.70;99.90
22795;DHT22;11564;50.920;11.612;2023-11-21T18:00:07;3.80;99.90
22795;DHT22;11564;50.920;11.612;2023-11-21T18:02:35;3.80;99.90
22795;DHT22;11564;50.920;11.612;2023-11-21T18:05:00;3.80;99.90
22795;DHT22;11564;50.920;11.612;2023-11-21T18:07:27;3.80;99.90
22795;DHT22;11564;50.920;11.612;2023-11-21T18:09:52;3.80;99.90
22795;DHT22;11564;50.920;11.612;2023-11-21T18:12:18;3.80;99.90
22795;DHT22;11564;50.920;11.612;2023-11-21T18:14:45;3.80;99.90
22795;DHT22;11564;50.920;11.612;2023-11-21T18:17:15;3.80;99.90
22795;DHT22;11564;50.920;11.612;2023-11-21T18:19:45;3.90;99.90
22795;DHT22;11564;50.920;11.612;2023-11-21T18:22:10;3.90;99.90
22795;DHT22;11564;50.920;11.612;2023-11-21T18:24:36;3.80;99.90
22795;DHT22;11564;50.920;11.612;2023-11-21T18:27:02;4.00;99.90
22795;DHT22;11564;50.920;11.612;2023-11-21T18:29:30;3.70;99.90
22795;DHT22;11564;50.920;11.612;2023-11-21T18:31:56;3.40;99.90
22795;DHT22;11564;50.920;11.612;2023-11-21T18:34:21;3.30;99.90
22795;DHT22;11564;50.920;11.612;2023-11-21T18:36:47;3.30;99.90
22795;DHT22;11564;50.920;11.612;2023-11-21T18:39:13;3.20;99.90
22795;DHT22;11564;50.920;11.612;2023-11-21T18:41:43;3.20;99.90
22795;DHT22;11564;50.920;11.612;2023-11-21T18:44:08;3.10;99.90
22795;DHT22;11564;50.920;11.612;2023-11-21T18:46:35;3.00;99.90
22795;DHT22;11564;50.920;11.612;2023-11-21T18:49:01;3.00;99.90
22795;DHT22;11564;50.920;11.612;2023-11-21T18:51:26;3.00;99.90
22795;DHT22;11564;50.920;11.612;2023-11-21T18:53:52;2.90;99.90
22795;DHT22;11564;50.920;11.612;2023-11-21T18:56:18;2.90;99.90
22795;DHT22;11564;50.920;11.612;2023-11-21T18:58:43;2.90;99.90
22795;DHT22;11564;50.920;11.612;2023-11-21T19:01:09;2.90;99.90
22795;DHT22;11564;50.920;11.612;2023-11-21T19:03:34;2.90;99.90
22795;DHT22;11564;50.920;11.612;2023-11-21T19:06:00;2.90;99.90
22795;DHT22;11564;50.920;11.612;2023-11-21T19:08:25;3.00;99.90
22795;DHT22;11564;50.920;11.612;2023-11-21T19:10:51;3.00;99.90
22795;DHT22;11564;50.920;11.612;2023-11-21T19:13:17;3.10;99.90
22795;DHT22;11564;50.920;11.612;2023-11-21T19:15:44;3.10;99.90
22795;DHT22;11564;50.920;11.612;2023-11-21T19:18:10;3.10;99.90
22795;DHT22;11564;50.920;11.612;2023-11-21T19:20:36;3.20;99.90
22795;DHT22;11564;50.920;11.612;2023-11-21T19:23:01;3.20;99.90
22795;DHT22;11564;50.920;11.612;2023-11-21T19:25:27;3.20;99.90
22795;DHT22;11564;50.920;11.612;2023-11-21T19:27:52;3.20;99.90
22795;DHT22;11564;50.920;11.612;2023-11-21T19:30:18;3.20;99.90
22795;DHT22;11564;50.920;11.612;2023-11-21T19:32:43;3.10;99.90
22795;DHT22;11564;50.920;11.612;2023-11-21T19:35:10;3.20;99.90
22795;DHT22;11564;50.920;11.612;2023-11-21T19:37:35;3.00;99.90
22795;DHT22;11564;50.920;11.612;2023-11-21T19:40:02;3.10;99.90
22795;DHT22;11564;50.920;11.612;2023-11-21T19:42:29;3.10;99.90
22795;DHT22;11564;50.920;11.612;2023-11-21T19:44:54;3.10;99.90
22795;DHT22;11564;50.920;11.612;2023-11-21T19:47:20;3.10;99.90
22795;DHT22;11564;50.920;11.612;2023-11-21T19:49:45;3.10;99.90
22795;DHT22;11564;50.920;11.612;2023-11-21T19:52:11;3.00;99.90
22795;DHT22;11564;50.920;11.612;2023-11-21T19:54:37;3.00;99.90
22795;DHT22;11564;50.920;11.612;2023-11-21T19:57:02;2.80;99.90
22795;DHT22;11564;50.920;11.612;2023-11-21T19:59:30;2.60;99.90
22795;DHT22;11564;50.920;11.612;2023-11-21T20:01:55;2.70;99.90
22795;DHT22;11564;50.920;11.612;2023-11-21T20:04:21;2.60;99.90
22795;DHT22;11564;50.920;11.612;2023-11-21T20:06:46;2.60;99.90
22795;DHT22;11564;50.920;11.612;2023-11-21T20:09:14;2.70;99.90
22795;DHT22;11564;50.920;11.612;2023-11-21T20:11:40;2.70;99.90
22795;DHT22;11564;50.920;11.612;2023-11-21T20:14:06;2.70;99.90
22795;DHT22;11564;50.920;11.612;2023-11-21T20:16:32;2.70;99.90